OINR  Ramsar  Airport

Iran

Add Bookmark
ICAO OINR
IATA RZR
Type Airport
Status Operational
Latitude
36° 54' 35" N
36.909901
Longitude
50° 40' 46" E
50.679600
Local (GMT +3.5 ) UTC
Dec 7, 2016 05:52 pm Dec 7, 2016 14:22
Sunrise-Sunset Local UTC
Begin Civil Twilight 06:37 am 03:07
Sunrise 07:06 am 03:36
Sunset 04:52 pm 13:22
End Civil Twilight 05:20 pm 13:50
VFR
VFR
MVFR
MVFR
IFR
IFR
LIFR
LIFR
Unknown
No Data

Current Weather

METAR Observed VFR
OINR 071400Z VRB02KT CAVOK 11/08 Q1018 Wed, Dec 7, 2016 @ 14:00 UTC
(22 Minutes ago)
Visual Flight Rules
Wind Visibility Conditions
Varies at 2 knots (4 kph) 10 km or more
  • No significant weather
Temperatures Readings Precipitation
Current Temp
11°C
52°F
Dewpoint
8°C
46°F
Humidity 82%
Altimeter 30.06" Hg
Sea Level Pressure 1,018 mb
None Recorded

Additional weather within a 92.6km radius of OINR

Map ICAO Location
OINN 75km E/SE (111°)
VFR
VFR
MVFR
MVFR
IFR
IFR
LIFR
LIFR
Unknown
No Data
-
-

CheckWX.com is intended as a tool to help pilots better visualize weather data. It is not intended as a substitute for an official weather briefing obtained from a Flight Service Station. CheckWX.com does not meet the FAA requirements for an official pre-flight weather briefing. Therefore, it's important that pilots still call and obtain an official FSS pre-flight weather briefing.

© 2007-2016 CheckWX.com
14:22:16 UTC